sensor_id;sensor_type;location;lat;lon;timestamp;temperature;humidity
6054;DHT22;3055;50.886;14.814;2023-07-20T00:01:52;15.90;99.90
6054;DHT22;3055;50.886;14.814;2023-07-20T00:04:19;15.90;99.90
6054;DHT22;3055;50.886;14.814;2023-07-20T00:06:46;15.80;99.90
6054;DHT22;3055;50.886;14.814;2023-07-20T00:09:13;15.70;99.90
6054;DHT22;3055;50.886;14.814;2023-07-20T00:11:48;15.70;99.90
6054;DHT22;3055;50.886;14.814;2023-07-20T00:14:16;15.70;99.90
6054;DHT22;3055;50.886;14.814;2023-07-20T00:16:44;15.70;99.90
6054;DHT22;3055;50.886;14.814;2023-07-20T00:19:12;15.60;99.90
6054;DHT22;3055;50.886;14.814;2023-07-20T00:21:39;15.50;99.90
6054;DHT22;3055;50.886;14.814;2023-07-20T00:24:08;15.50;99.90
6054;DHT22;3055;50.886;14.814;2023-07-20T00:26:35;15.50;99.90
6054;DHT22;3055;50.886;14.814;2023-07-20T00:29:03;15.50;99.90
6054;DHT22;3055;50.886;14.814;2023-07-20T00:31:31;15.40;99.90
6054;DHT22;3055;50.886;14.814;2023-07-20T00:33:58;15.40;99.90
6054;DHT22;3055;50.886;14.814;2023-07-20T00:36:25;15.30;99.90
6054;DHT22;3055;50.886;14.814;2023-07-20T00:38:52;15.30;99.90
6054;DHT22;3055;50.886;14.814;2023-07-20T00:41:19;15.30;99.90
6054;DHT22;3055;50.886;14.814;2023-07-20T00:43:46;15.30;99.90
6054;DHT22;3055;50.886;14.814;2023-07-20T00:46:15;15.30;99.90
6054;DHT22;3055;50.886;14.814;2023-07-20T00:48:42;15.30;99.90
6054;DHT22;3055;50.886;14.814;2023-07-20T00:51:10;15.40;99.90
6054;DHT22;3055;50.886;14.814;2023-07-20T00:53:37;15.60;99.90
6054;DHT22;3055;50.886;14.814;2023-07-20T00:56:04;15.40;99.90
6054;DHT22;3055;50.886;14.814;2023-07-20T00:58:33;15.50;99.90
6054;DHT22;3055;50.886;14.814;2023-07-20T01:01:00;15.40;99.90
6054;DHT22;3055;50.886;14.814;2023-07-20T01:03:29;15.40;99.90
6054;DHT22;3055;50.886;14.814;2023-07-20T01:06:09;15.40;99.90
6054;DHT22;3055;50.886;14.814;2023-07-20T01:08:40;15.30;99.90
6054;DHT22;3055;50.886;14.814;2023-07-20T01:11:15;15.40;99.90
6054;DHT22;3055;50.886;14.814;2023-07-20T01:13:43;15.40;99.90
6054;DHT22;3055;50.886;14.814;2023-07-20T01:16:11;15.50;99.90
6054;DHT22;3055;50.886;14.814;2023-07-20T01:18:39;15.60;99.90
6054;DHT22;3055;50.886;14.814;2023-07-20T01:21:09;15.70;99.90
6054;DHT22;3055;50.886;14.814;2023-07-20T01:27:00;15.90;99.90
6054;DHT22;3055;50.886;14.814;2023-07-20T01:29:51;15.90;99.90
6054;DHT22;3055;50.886;14.814;2023-07-20T01:32:24;15.90;99.90
6054;DHT22;3055;50.886;14.814;2023-07-20T01:34:53;16.00;99.90
6054;DHT22;3055;50.886;14.814;2023-07-20T01:37:21;16.20;99.90
6054;DHT22;3055;50.886;14.814;2023-07-20T01:39:52;16.20;99.90
6054;DHT22;3055;50.886;14.814;2023-07-20T01:42:21;16.30;99.90
6054;DHT22;3055;50.886;14.814;2023-07-20T01:44:51;16.20;99.90
6054;DHT22;3055;50.886;14.814;2023-07-20T01:47:19;16.10;99.90
6054;DHT22;3055;50.886;14.814;2023-07-20T01:49:47;16.10;99.90
6054;DHT22;3055;50.886;14.814;2023-07-20T01:52:14;16.10;99.90
6054;DHT22;3055;50.886;14.814;2023-07-20T01:54:42;16.20;99.90
6054;DHT22;3055;50.886;14.814;2023-07-20T01:57:09;16.10;99.90
6054;DHT22;3055;50.886;14.814;2023-07-20T01:59:36;16.00;99.90
6054;DHT22;3055;50.886;14.814;2023-07-20T02:02:03;16.00;99.90
6054;DHT22;3055;50.886;14.814;2023-07-20T02:04:30;16.00;99.90
6054;DHT22;3055;50.886;14.814;2023-07-20T02:06:59;16.10;99.90
6054;DHT22;3055;50.886;14.814;2023-07-20T02:09:26;16.20;99.90
6054;DHT22;3055;50.886;14.814;2023-07-20T02:11:53;16.20;99.90
6054;DHT22;3055;50.886;14.814;2023-07-20T02:14:20;16.20;99.90
6054;DHT22;3055;50.886;14.814;2023-07-20T02:16:48;16.20;99.90
6054;DHT22;3055;50.886;14.814;2023-07-20T02:19:18;16.20;99.90
6054;DHT22;3055;50.886;14.814;2023-07-20T02:21:45;16.30;99.90
6054;DHT22;3055;50.886;14.814;2023-07-20T02:24:16;16.30;99.90
6054;DHT22;3055;50.886;14.814;2023-07-20T02:26:43;16.40;99.90
6054;DHT22;3055;50.886;14.814;2023-07-20T02:29:11;16.30;99.90
6054;DHT22;3055;50.886;14.814;2023-07-20T02:31:38;16.30;99.90
6054;DHT22;3055;50.886;14.814;2023-07-20T02:34:06;16.20;99.90
6054;DHT22;3055;50.886;14.814;2023-07-20T02:36:34;16.20;99.90
6054;DHT22;3055;50.886;14.814;2023-07-20T02:39:01;16.10;99.90
6054;DHT22;3055;50.886;14.814;2023-07-20T02:41:30;15.90;99.90
6054;DHT22;3055;50.886;14.814;2023-07-20T02:43:58;15.90;99.90
6054;DHT22;3055;50.886;14.814;2023-07-20T02:46:25;15.80;99.90
6054;DHT22;3055;50.886;14.814;2023-07-20T02:48:52;15.80;99.90
6054;DHT22;3055;50.886;14.814;2023-07-20T02:51:19;15.80;99.90
6054;DHT22;3055;50.886;14.814;2023-07-20T02:53:46;15.90;99.90
6054;DHT22;3055;50.886;14.814;2023-07-20T02:56:13;16.00;99.90
6054;DHT22;3055;50.886;14.814;2023-07-20T02:58:42;15.90;99.90
6054;DHT22;3055;50.886;14.814;2023-07-20T03:01:11;15.90;99.90
6054;DHT22;3055;50.886;14.814;2023-07-20T03:03:38;15.90;99.90
6054;DHT22;3055;50.886;14.814;2023-07-20T03:06:06;15.90;99.90
6054;DHT22;3055;50.886;14.814;2023-07-20T03:08:35;15.90;99.90
6054;DHT22;3055;50.886;14.814;2023-07-20T03:11:02;16.00;99.90
6054;DHT22;3055;50.886;14.814;2023-07-20T03:13:29;16.00;99.90
6054;DHT22;3055;50.886;14.814;2023-07-20T03:15:58;15.90;99.90
6054;DHT22;3055;50.886;14.814;2023-07-20T03:18:25;15.80;99.90
6054;DHT22;3055;50.886;14.814;2023-07-20T03:20:52;15.60;99.90
6054;DHT22;3055;50.886;14.814;2023-07-20T03:23:19;15.60;99.90
6054;DHT22;3055;50.886;14.814;2023-07-20T03:25:46;15.60;99.90
6054;DHT22;3055;50.886;14.814;2023-07-20T03:28:13;15.70;99.90
6054;DHT22;3055;50.886;14.814;2023-07-20T03:30:41;15.70;99.90
6054;DHT22;3055;50.886;14.814;2023-07-20T03:33:09;15.70;99.90
6054;DHT22;3055;50.886;14.814;2023-07-20T03:35:36;15.80;99.90
6054;DHT22;3055;50.886;14.814;2023-07-20T03:38:04;15.80;99.90
6054;DHT22;3055;50.886;14.814;2023-07-20T03:40:31;15.80;99.90
6054;DHT22;3055;50.886;14.814;2023-07-20T03:42:58;15.80;99.90
6054;DHT22;3055;50.886;14.814;2023-07-20T03:45:25;15.80;99.90
6054;DHT22;3055;50.886;14.814;2023-07-20T03:47:52;15.90;99.90
6054;DHT22;3055;50.886;14.814;2023-07-20T03:50:20;15.90;99.90
6054;DHT22;3055;50.886;14.814;2023-07-20T03:52:47;15.90;99.90
6054;DHT22;3055;50.886;14.814;2023-07-20T03:55:14;15.80;99.90
6054;DHT22;3055;50.886;14.814;2023-07-20T03:57:41;16.00;99.90
6054;DHT22;3055;50.886;14.814;2023-07-20T04:00:12;16.00;99.90
6054;DHT22;3055;50.886;14.814;2023-07-20T04:02:40;16.00;99.90
6054;DHT22;3055;50.886;14.814;2023-07-20T04:05:07;16.00;99.90
6054;DHT22;3055;50.886;14.814;2023-07-20T04:07:36;16.00;99.90
6054;DHT22;3055;50.886;14.814;2023-07-20T04:10:04;16.10;99.90
6054;DHT22;3055;50.886;14.814;2023-07-20T04:12:31;16.20;99.90
6054;DHT22;3055;50.886;14.814;2023-07-20T04:14:58;16.30;99.90
6054;DHT22;3055;50.886;14.814;2023-07-20T04:17:25;16.40;99.90
6054;DHT22;3055;50.886;14.814;2023-07-20T04:19:52;16.60;99.90
6054;DHT22;3055;50.886;14.814;2023-07-20T04:22:19;16.80;99.90
6054;DHT22;3055;50.886;14.814;2023-07-20T04:24:48;16.90;99.90
6054;DHT22;3055;50.886;14.814;2023-07-20T04:27:15;16.80;99.90
6054;DHT22;3055;50.886;14.814;2023-07-20T04:29:43;16.80;99.90
6054;DHT22;3055;50.886;14.814;2023-07-20T04:32:10;16.70;99.90
6054;DHT22;3055;50.886;14.814;2023-07-20T04:34:37;16.70;99.90
6054;DHT22;3055;50.886;14.814;2023-07-20T04:37:04;16.90;99.90
6054;DHT22;3055;50.886;14.814;2023-07-20T04:39:31;17.00;99.90
6054;DHT22;3055;50.886;14.814;2023-07-20T04:41:59;17.20;99.90
6054;DHT22;3055;50.886;14.814;2023-07-20T04:44:27;17.40;99.90
6054;DHT22;3055;50.886;14.814;2023-07-20T04:46:54;17.40;99.90
6054;DHT22;3055;50.886;14.814;2023-07-20T04:49:21;17.50;99.90
6054;DHT22;3055;50.886;14.814;2023-07-20T04:51:48;17.50;99.90
6054;DHT22;3055;50.886;14.814;2023-07-20T04:54:15;17.40;99.90
6054;DHT22;3055;50.886;14.814;2023-07-20T04:56:43;17.50;99.90
6054;DHT22;3055;50.886;14.814;2023-07-20T04:59:11;17.60;99.90
6054;DHT22;3055;50.886;14.814;2023-07-20T05:01:38;17.80;99.90
6054;DHT22;3055;50.886;14.814;2023-07-20T05:04:06;17.90;99.90
6054;DHT22;3055;50.886;14.814;2023-07-20T05:06:33;18.00;99.90
6054;DHT22;3055;50.886;14.814;2023-07-20T05:09:00;18.20;99.90
6054;DHT22;3055;50.886;14.814;2023-07-20T05:11:27;18.20;99.90
6054;DHT22;3055;50.886;14.814;2023-07-20T05:13:55;18.20;99.90
6054;DHT22;3055;50.886;14.814;2023-07-20T05:16:23;18.30;99.90
6054;DHT22;3055;50.886;14.814;2023-07-20T05:18:50;18.20;99.90
6054;DHT22;3055;50.886;14.814;2023-07-20T05:21:18;18.10;99.90
6054;DHT22;3055;50.886;14.814;2023-07-20T05:23:45;18.20;99.90
6054;DHT22;3055;50.886;14.814;2023-07-20T05:26:12;18.30;99.90
6054;DHT22;3055;50.886;14.814;2023-07-20T05:28:39;18.40;99.90
6054;DHT22;3055;50.886;14.814;2023-07-20T05:31:06;18.60;99.90
6054;DHT22;3055;50.886;14.814;2023-07-20T05:33:35;18.80;99.90
6054;DHT22;3055;50.886;14.814;2023-07-20T05:36:02;19.10;68.30
6054;DHT22;3055;50.886;14.814;2023-07-20T05:38:29;19.30;65.90
6054;DHT22;3055;50.886;14.814;2023-07-20T05:40:59;19.50;73.10
6054;DHT22;3055;50.886;14.814;2023-07-20T05:43:27;19.50;17.70
6054;DHT22;3055;50.886;14.814;2023-07-20T05:45:54;19.40;29.10
6054;DHT22;3055;50.886;14.814;2023-07-20T05:48:21;19.30;43.50
6054;DHT22;3055;50.886;14.814;2023-07-20T05:50:49;19.10;20.00
6054;DHT22;3055;50.886;14.814;2023-07-20T05:53:17;19.00;40.90
6054;DHT22;3055;50.886;14.814;2023-07-20T05:55:44;19.00;99.90
6054;DHT22;3055;50.886;14.814;2023-07-20T05:58:11;19.00;86.80
6054;DHT22;3055;50.886;14.814;2023-07-20T06:00:38;18.90;86.80
6054;DHT22;3055;50.886;14.814;2023-07-20T06:03:05;18.80;68.90
6054;DHT22;3055;50.886;14.814;2023-07-20T06:05:32;18.70;99.10
6054;DHT22;3055;50.886;14.814;2023-07-20T06:08:01;18.60;93.10
6054;DHT22;3055;50.886;14.814;2023-07-20T06:10:28;18.50;99.90
6054;DHT22;3055;50.886;14.814;2023-07-20T06:12:55;18.50;99.90
6054;DHT22;3055;50.886;14.814;2023-07-20T06:15:26;18.40;99.90
6054;DHT22;3055;50.886;14.814;2023-07-20T06:17:54;18.60;99.90
6054;DHT22;3055;50.886;14.814;2023-07-20T06:20:23;18.60;99.90
6054;DHT22;3055;50.886;14.814;2023-07-20T06:22:51;18.80;86.20
6054;DHT22;3055;50.886;14.814;2023-07-20T06:25:19;18.90;89.90
6054;DHT22;3055;50.886;14.814;2023-07-20T06:27:49;19.00;25.90
6054;DHT22;3055;50.886;14.814;2023-07-20T06:30:17;19.10;34.20
6054;DHT22;3055;50.886;14.814;2023-07-20T06:32:44;19.40;25.30
6054;DHT22;3055;50.886;14.814;2023-07-20T06:35:11;19.60;1.00
6054;DHT22;3055;50.886;14.814;2023-07-20T06:37:38;19.70;1.00
6054;DHT22;3055;50.886;14.814;2023-07-20T06:40:06;19.80;1.00
6054;DHT22;3055;50.886;14.814;2023-07-20T06:42:36;19.80;1.00
6054;DHT22;3055;50.886;14.814;2023-07-20T06:45:03;19.90;99.90
6054;DHT22;3055;50.886;14.814;2023-07-20T06:47:31;20.00;99.90
6054;DHT22;3055;50.886;14.814;2023-07-20T06:49:58;20.20;99.90
6054;DHT22;3055;50.886;14.814;2023-07-20T06:52:25;20.20;99.90
6054;DHT22;3055;50.886;14.814;2023-07-20T06:54:52;20.10;52.60
6054;DHT22;3055;50.886;14.814;2023-07-20T06:57:19;20.00;49.50
6054;DHT22;3055;50.886;14.814;2023-07-20T06:59:48;19.90;99.90
6054;DHT22;3055;50.886;14.814;2023-07-20T07:02:15;19.90;91.70
6054;DHT22;3055;50.886;14.814;2023-07-20T07:04:42;20.00;66.30
6054;DHT22;3055;50.886;14.814;2023-07-20T07:07:09;20.10;1.00
6054;DHT22;3055;50.886;14.814;2023-07-20T07:09:36;20.20;1.00
6054;DHT22;3055;50.886;14.814;2023-07-20T07:12:04;20.10;1.00
6054;DHT22;3055;50.886;14.814;2023-07-20T07:14:32;20.00;1.00
6054;DHT22;3055;50.886;14.814;2023-07-20T07:17:00;19.90;1.00
6054;DHT22;3055;50.886;14.814;2023-07-20T07:19:27;19.90;1.00
6054;DHT22;3055;50.886;14.814;2023-07-20T07:21:54;19.80;1.00
6054;DHT22;3055;50.886;14.814;2023-07-20T07:24:21;19.80;1.00
6054;DHT22;3055;50.886;14.814;2023-07-20T07:26:48;19.80;1.00
6054;DHT22;3055;50.886;14.814;2023-07-20T07:29:15;19.90;1.00
6054;DHT22;3055;50.886;14.814;2023-07-20T07:31:43;20.10;1.00
6054;DHT22;3055;50.886;14.814;2023-07-20T07:34:11;20.10;1.00
6054;DHT22;3055;50.886;14.814;2023-07-20T07:36:38;20.20;1.00
6054;DHT22;3055;50.886;14.814;2023-07-20T07:39:05;20.20;1.00
6054;DHT22;3055;50.886;14.814;2023-07-20T07:41:32;20.20;1.00
6054;DHT22;3055;50.886;14.814;2023-07-20T07:44:00;20.40;1.00
6054;DHT22;3055;50.886;14.814;2023-07-20T07:46:27;20.60;1.00
6054;DHT22;3055;50.886;14.814;2023-07-20T07:48:54;20.90;99.90
6054;DHT22;3055;50.886;14.814;2023-07-20T07:51:23;21.40;99.90
6054;DHT22;3055;50.886;14.814;2023-07-20T07:53:50;21.80;99.90
6054;DHT22;3055;50.886;14.814;2023-07-20T07:56:17;22.20;99.90
6054;DHT22;3055;50.886;14.814;2023-07-20T07:58:48;22.60;99.90
6054;DHT22;3055;50.886;14.814;2023-07-20T08:01:15;22.80;99.90
6054;DHT22;3055;50.886;14.814;2023-07-20T08:03:42;22.80;99.90
6054;DHT22;3055;50.886;14.814;2023-07-20T08:06:11;22.80;99.90
6054;DHT22;3055;50.886;14.814;2023-07-20T08:08:39;22.70;99.90
6054;DHT22;3055;50.886;14.814;2023-07-20T08:11:07;22.30;99.90
6054;DHT22;3055;50.886;14.814;2023-07-20T08:13:34;21.40;99.90
6054;DHT22;3055;50.886;14.814;2023-07-20T08:16:01;20.60;1.00
6054;DHT22;3055;50.886;14.814;2023-07-20T08:18:29;20.00;99.90
6054;DHT22;3055;50.886;14.814;2023-07-20T08:20:56;19.70;79.30
6054;DHT22;3055;50.886;14.814;2023-07-20T08:23:23;19.50;66.20
6054;DHT22;3055;50.886;14.814;2023-07-20T08:25:54;19.50;1.00
6054;DHT22;3055;50.886;14.814;2023-07-20T08:28:21;19.50;1.00
6054;DHT22;3055;50.886;14.814;2023-07-20T08:30:49;19.50;99.90
6054;DHT22;3055;50.886;14.814;2023-07-20T08:33:18;19.40;99.90
6054;DHT22;3055;50.886;14.814;2023-07-20T08:35:46;19.20;22.70
6054;DHT22;3055;50.886;14.814;2023-07-20T08:38:13;18.90;1.00
6054;DHT22;3055;50.886;14.814;2023-07-20T08:40:41;18.80;1.00
6054;DHT22;3055;50.886;14.814;2023-07-20T08:43:10;18.70;99.90
6054;DHT22;3055;50.886;14.814;2023-07-20T08:45:39;18.60;1.00
6054;DHT22;3055;50.886;14.814;2023-07-20T08:48:07;18.80;1.00
6054;DHT22;3055;50.886;14.814;2023-07-20T08:50:35;19.00;99.90
6054;DHT22;3055;50.886;14.814;2023-07-20T08:53:03;19.20;99.90
6054;DHT22;3055;50.886;14.814;2023-07-20T08:55:30;19.40;99.90
6054;DHT22;3055;50.886;14.814;2023-07-20T08:57:59;19.70;1.00
6054;DHT22;3055;50.886;14.814;2023-07-20T09:00:28;20.00;99.90
6054;DHT22;3055;50.886;14.814;2023-07-20T09:02:56;20.20;99.90
6054;DHT22;3055;50.886;14.814;2023-07-20T09:05:25;20.40;99.90
6054;DHT22;3055;50.886;14.814;2023-07-20T09:07:52;20.50;99.90
6054;DHT22;3055;50.886;14.814;2023-07-20T09:10:21;20.60;1.00
6054;DHT22;3055;50.886;14.814;2023-07-20T09:12:48;20.70;1.00
6054;DHT22;3055;50.886;14.814;2023-07-20T09:15:16;21.00;1.00
6054;DHT22;3055;50.886;14.814;2023-07-20T09:17:47;21.10;1.00
6054;DHT22;3055;50.886;14.814;2023-07-20T09:20:16;21.30;1.00
6054;DHT22;3055;50.886;14.814;2023-07-20T09:22:44;21.40;1.00
6054;DHT22;3055;50.886;14.814;2023-07-20T09:25:12;21.40;1.00
6054;DHT22;3055;50.886;14.814;2023-07-20T09:27:42;21.40;1.00
6054;DHT22;3055;50.886;14.814;2023-07-20T09:30:10;21.50;1.00
6054;DHT22;3055;50.886;14.814;2023-07-20T09:32:40;21.40;99.90
6054;DHT22;3055;50.886;14.814;2023-07-20T09:35:14;21.40;99.90
6054;DHT22;3055;50.886;14.814;2023-07-20T09:37:46;21.40;99.90
6054;DHT22;3055;50.886;14.814;2023-07-20T09:40:17;21.50;99.90
6054;DHT22;3055;50.886;14.814;2023-07-20T09:42:45;21.60;99.90
6054;DHT22;3055;50.886;14.814;2023-07-20T09:45:12;21.60;99.90
6054;DHT22;3055;50.886;14.814;2023-07-20T09:47:39;21.60;99.90
6054;DHT22;3055;50.886;14.814;2023-07-20T09:50:07;21.60;99.90
6054;DHT22;3055;50.886;14.814;2023-07-20T09:52:40;21.70;99.90
6054;DHT22;3055;50.886;14.814;2023-07-20T09:55:10;21.80;99.90
6054;DHT22;3055;50.886;14.814;2023-07-20T09:57:38;21.90;99.90
6054;DHT22;3055;50.886;14.814;2023-07-20T10:00:07;21.80;99.90
6054;DHT22;3055;50.886;14.814;2023-07-20T10:02:43;21.60;99.90
6054;DHT22;3055;50.886;14.814;2023-07-20T10:05:12;21.40;99.90
6054;DHT22;3055;50.886;14.814;2023-07-20T10:07:44;21.40;99.90
6054;DHT22;3055;50.886;14.814;2023-07-20T10:10:15;21.60;99.90
6054;DHT22;3055;50.886;14.814;2023-07-20T10:12:45;21.80;99.90
6054;DHT22;3055;50.886;14.814;2023-07-20T10:15:18;21.90;99.90
6054;DHT22;3055;50.886;14.814;2023-07-20T10:18:03;22.00;99.90
6054;DHT22;3055;50.886;14.814;2023-07-20T10:20:36;22.30;99.90
6054;DHT22;3055;50.886;14.814;2023-07-20T10:23:06;23.00;99.90
6054;DHT22;3055;50.886;14.814;2023-07-20T10:25:34;23.70;99.90
6054;DHT22;3055;50.886;14.814;2023-07-20T10:28:05;23.90;1.00
6054;DHT22;3055;50.886;14.814;2023-07-20T10:30:33;24.10;1.00
6054;DHT22;3055;50.886;14.814;2023-07-20T10:33:02;24.10;1.00
6054;DHT22;3055;50.886;14.814;2023-07-20T10:35:29;23.90;1.00
6054;DHT22;3055;50.886;14.814;2023-07-20T10:38:00;24.00;1.00
6054;DHT22;3055;50.886;14.814;2023-07-20T10:40:31;24.30;1.00
6054;DHT22;3055;50.886;14.814;2023-07-20T10:43:03;24.10;1.00
6054;DHT22;3055;50.886;14.814;2023-07-20T10:45:41;24.00;1.00
6054;DHT22;3055;50.886;14.814;2023-07-20T10:48:19;23.90;1.00
6054;DHT22;3055;50.886;14.814;2023-07-20T10:53:28;24.60;1.00
6054;DHT22;3055;50.886;14.814;2023-07-20T10:56:08;24.90;1.00
6054;DHT22;3055;50.886;14.814;2023-07-20T10:58:35;24.70;1.00
6054;DHT22;3055;50.886;14.814;2023-07-20T11:01:03;24.50;1.00
6054;DHT22;3055;50.886;14.814;2023-07-20T11:03:33;24.30;1.00
6054;DHT22;3055;50.886;14.814;2023-07-20T11:06:29;24.00;1.00
6054;DHT22;3055;50.886;14.814;2023-07-20T11:09:07;23.40;1.00
6054;DHT22;3055;50.886;14.814;2023-07-20T11:11:38;23.20;1.00
6054;DHT22;3055;50.886;14.814;2023-07-20T11:14:07;23.10;1.00
6054;DHT22;3055;50.886;14.814;2023-07-20T11:16:39;22.90;1.00
6054;DHT22;3055;50.886;14.814;2023-07-20T11:19:14;22.80;1.00
6054;DHT22;3055;50.886;14.814;2023-07-20T11:21:43;22.80;1.00
6054;DHT22;3055;50.886;14.814;2023-07-20T11:24:11;22.60;1.00
6054;DHT22;3055;50.886;14.814;2023-07-20T11:26:47;22.60;1.00
6054;DHT22;3055;50.886;14.814;2023-07-20T11:29:16;22.70;1.00
6054;DHT22;3055;50.886;14.814;2023-07-20T11:31:45;22.80;1.00
6054;DHT22;3055;50.886;14.814;2023-07-20T11:34:13;22.90;1.00
6054;DHT22;3055;50.886;14.814;2023-07-20T11:36:41;22.90;1.00
6054;DHT22;3055;50.886;14.814;2023-07-20T11:39:09;23.20;1.00
6054;DHT22;3055;50.886;14.814;2023-07-20T11:41:37;23.80;1.00
6054;DHT22;3055;50.886;14.814;2023-07-20T11:44:07;24.20;1.00
6054;DHT22;3055;50.886;14.814;2023-07-20T11:46:39;24.70;1.00
6054;DHT22;3055;50.886;14.814;2023-07-20T11:49:07;24.90;1.00
6054;DHT22;3055;50.886;14.814;2023-07-20T11:51:34;24.50;1.00
6054;DHT22;3055;50.886;14.814;2023-07-20T11:54:03;24.30;1.00
6054;DHT22;3055;50.886;14.814;2023-07-20T11:56:30;23.80;1.00
6054;DHT22;3055;50.886;14.814;2023-07-20T11:58:58;24.00;1.00
6054;DHT22;3055;50.886;14.814;2023-07-20T12:01:29;24.40;1.00
6054;DHT22;3055;50.886;14.814;2023-07-20T12:03:57;24.30;1.00
6054;DHT22;3055;50.886;14.814;2023-07-20T12:06:28;24.00;1.00
6054;DHT22;3055;50.886;14.814;2023-07-20T12:08:56;24.20;1.00
6054;DHT22;3055;50.886;14.814;2023-07-20T12:11:34;24.50;1.00
6054;DHT22;3055;50.886;14.814;2023-07-20T12:14:02;24.70;1.00
6054;DHT22;3055;50.886;14.814;2023-07-20T12:16:31;24.80;1.00
6054;DHT22;3055;50.886;14.814;2023-07-20T12:19:02;24.60;1.00
6054;DHT22;3055;50.886;14.814;2023-07-20T12:21:29;24.30;1.00
6054;DHT22;3055;50.886;14.814;2023-07-20T12:23:57;24.20;1.00
6054;DHT22;3055;50.886;14.814;2023-07-20T12:26:25;24.30;1.00
6054;DHT22;3055;50.886;14.814;2023-07-20T12:28:53;24.80;1.00
6054;DHT22;3055;50.886;14.814;2023-07-20T12:31:21;24.90;1.00
6054;DHT22;3055;50.886;14.814;2023-07-20T12:33:51;24.90;1.00
6054;DHT22;3055;50.886;14.814;2023-07-20T12:36:18;24.60;1.00
6054;DHT22;3055;50.886;14.814;2023-07-20T12:38:45;24.30;1.00
6054;DHT22;3055;50.886;14.814;2023-07-20T12:41:13;24.20;1.00
6054;DHT22;3055;50.886;14.814;2023-07-20T12:43:40;24.30;1.00
6054;DHT22;3055;50.886;14.814;2023-07-20T12:46:08;24.20;1.00
6054;DHT22;3055;50.886;14.814;2023-07-20T12:48:35;24.40;1.00
6054;DHT22;3055;50.886;14.814;2023-07-20T12:51:05;24.60;1.00
6054;DHT22;3055;50.886;14.814;2023-07-20T12:53:32;24.60;1.00
6054;DHT22;3055;50.886;14.814;2023-07-20T12:56:00;24.70;1.00
6054;DHT22;3055;50.886;14.814;2023-07-20T12:58:27;24.50;1.00
6054;DHT22;3055;50.886;14.814;2023-07-20T13:00:54;24.50;1.00
6054;DHT22;3055;50.886;14.814;2023-07-20T13:03:22;24.20;1.00
6054;DHT22;3055;50.886;14.814;2023-07-20T13:05:49;23.90;1.00
6054;DHT22;3055;50.886;14.814;2023-07-20T13:08:17;23.90;1.00
6054;DHT22;3055;50.886;14.814;2023-07-20T13:10:45;24.00;1.00
6054;DHT22;3055;50.886;14.814;2023-07-20T13:13:12;24.10;1.00
6054;DHT22;3055;50.886;14.814;2023-07-20T13:15:43;23.80;1.00
6054;DHT22;3055;50.886;14.814;2023-07-20T13:18:12;23.90;1.00
6054;DHT22;3055;50.886;14.814;2023-07-20T13:20:39;24.20;1.00
6054;DHT22;3055;50.886;14.814;2023-07-20T13:23:06;24.70;1.00
6054;DHT22;3055;50.886;14.814;2023-07-20T13:25:34;25.30;1.00
6054;DHT22;3055;50.886;14.814;2023-07-20T13:28:02;25.70;1.00
6054;DHT22;3055;50.886;14.814;2023-07-20T13:30:29;25.50;1.00
6054;DHT22;3055;50.886;14.814;2023-07-20T13:32:56;25.50;1.00
6054;DHT22;3055;50.886;14.814;2023-07-20T13:35:23;25.80;1.00
6054;DHT22;3055;50.886;14.814;2023-07-20T13:37:50;26.20;1.00
6054;DHT22;3055;50.886;14.814;2023-07-20T13:40:17;26.20;1.00
6054;DHT22;3055;50.886;14.814;2023-07-20T13:42:46;25.60;1.00
6054;DHT22;3055;50.886;14.814;2023-07-20T13:45:13;25.20;1.00
6054;DHT22;3055;50.886;14.814;2023-07-20T13:47:40;25.10;1.00
6054;DHT22;3055;50.886;14.814;2023-07-20T13:50:07;25.10;1.00
6054;DHT22;3055;50.886;14.814;2023-07-20T13:52:35;25.30;1.00
6054;DHT22;3055;50.886;14.814;2023-07-20T13:55:03;25.40;1.00
6054;DHT22;3055;50.886;14.814;2023-07-20T13:57:30;25.70;1.00
6054;DHT22;3055;50.886;14.814;2023-07-20T13:59:59;26.20;1.00
6054;DHT22;3055;50.886;14.814;2023-07-20T14:02:27;26.50;1.00
6054;DHT22;3055;50.886;14.814;2023-07-20T14:04:54;27.20;1.00
6054;DHT22;3055;50.886;14.814;2023-07-20T14:07:22;27.00;1.00
6054;DHT22;3055;50.886;14.814;2023-07-20T14:09:49;26.30;1.00
6054;DHT22;3055;50.886;14.814;2023-07-20T14:12:16;25.90;1.00
6054;DHT22;3055;50.886;14.814;2023-07-20T14:14:43;25.60;1.00
6054;DHT22;3055;50.886;14.814;2023-07-20T14:17:12;25.10;1.00
6054;DHT22;3055;50.886;14.814;2023-07-20T14:19:39;24.90;1.00
6054;DHT22;3055;50.886;14.814;2023-07-20T14:22:06;24.60;1.00
6054;DHT22;3055;50.886;14.814;2023-07-20T14:24:34;24.50;1.00
6054;DHT22;3055;50.886;14.814;2023-07-20T14:27:01;24.10;1.00
6054;DHT22;3055;50.886;14.814;2023-07-20T14:29:28;23.70;1.00
6054;DHT22;3055;50.886;14.814;2023-07-20T14:31:57;23.10;1.00
6054;DHT22;3055;50.886;14.814;2023-07-20T14:34:26;22.70;1.00
6054;DHT22;3055;50.886;14.814;2023-07-20T14:36:53;22.30;1.00
6054;DHT22;3055;50.886;14.814;2023-07-20T14:39:20;21.90;1.00
6054;DHT22;3055;50.886;14.814;2023-07-20T14:41:48;21.60;1.00
6054;DHT22;3055;50.886;14.814;2023-07-20T14:44:16;21.40;1.00
6054;DHT22;3055;50.886;14.814;2023-07-20T14:46:43;21.30;1.00
6054;DHT22;3055;50.886;14.814;2023-07-20T14:49:10;21.30;1.00
6054;DHT22;3055;50.886;14.814;2023-07-20T14:51:39;21.20;1.00
6054;DHT22;3055;50.886;14.814;2023-07-20T14:54:11;21.10;1.00
6054;DHT22;3055;50.886;14.814;2023-07-20T14:56:39;21.10;1.00
6054;DHT22;3055;50.886;14.814;2023-07-20T14:59:06;21.00;1.00
6054;DHT22;3055;50.886;14.814;2023-07-20T15:01:33;21.00;1.00
6054;DHT22;3055;50.886;14.814;2023-07-20T15:04:01;20.90;1.00
6054;DHT22;3055;50.886;14.814;2023-07-20T15:06:29;20.90;1.00
6054;DHT22;3055;50.886;14.814;2023-07-20T15:08:59;20.90;1.00
6054;DHT22;3055;50.886;14.814;2023-07-20T15:11:26;21.10;1.00
6054;DHT22;3055;50.886;14.814;2023-07-20T15:13:53;21.40;1.00
6054;DHT22;3055;50.886;14.814;2023-07-20T15:16:20;21.40;1.00
6054;DHT22;3055;50.886;14.814;2023-07-20T15:18:47;21.40;1.00
6054;DHT22;3055;50.886;14.814;2023-07-20T15:21:14;21.40;1.00
6054;DHT22;3055;50.886;14.814;2023-07-20T15:23:42;21.40;1.00
6054;DHT22;3055;50.886;14.814;2023-07-20T15:26:11;21.30;1.00
6054;DHT22;3055;50.886;14.814;2023-07-20T15:28:38;21.30;1.00
6054;DHT22;3055;50.886;14.814;2023-07-20T15:31:05;21.30;1.00
6054;DHT22;3055;50.886;14.814;2023-07-20T15:33:33;21.10;1.00
6054;DHT22;3055;50.886;14.814;2023-07-20T15:36:00;20.90;1.00
6054;DHT22;3055;50.886;14.814;2023-07-20T15:38:27;20.90;1.00
6054;DHT22;3055;50.886;14.814;2023-07-20T15:40:54;20.80;1.00
6054;DHT22;3055;50.886;14.814;2023-07-20T15:43:24;20.70;1.00
6054;DHT22;3055;50.886;14.814;2023-07-20T15:46:00;20.60;1.00
6054;DHT22;3055;50.886;14.814;2023-07-20T15:48:27;20.40;1.00
6054;DHT22;3055;50.886;14.814;2023-07-20T15:50:54;20.20;1.00
6054;DHT22;3055;50.886;14.814;2023-07-20T15:53:21;20.20;1.00
6054;DHT22;3055;50.886;14.814;2023-07-20T15:55:53;20.20;1.00
6054;DHT22;3055;50.886;14.814;2023-07-20T15:58:21;20.10;1.00
6054;DHT22;3055;50.886;14.814;2023-07-20T16:00:54;19.90;1.00
6054;DHT22;3055;50.886;14.814;2023-07-20T16:03:22;19.80;1.00
6054;DHT22;3055;50.886;14.814;2023-07-20T16:05:50;19.90;1.00